Time;durP1;ratioP1;P1;durP2;ratioP2;P2;SDS_P1;SDS_P2;PMS_P1;PMS_P2;Temp;Humidity;BMP_temperature;BMP_pressure;BME280_temperature;BME280_humidity;BME280_pressure;Samples;Min_cycle;Max_cycle;Signal;HPM_P1;HPM_P2
2021/03/03 00:03:53;;;;;;;121.05;53.75;;;;;;;4.95;56.43;100587.92;251834;1157;101059;-67
2021/03/03 00:08:55;;;;;;;112.73;51.87;;;;;;;4.87;56.46;100584.53;251815;1150;102251;-68
2021/03/03 00:13:57;;;;;;;127.23;54.33;;;;;;;4.77;56.84;100580.27;251888;1157;101602;-68
2021/03/03 00:18:59;;;;;;;123.50;51.47;;;;;;;4.69;56.83;100584.79;251891;1150;101542;-67
2021/03/03 00:24:02;;;;;;;116.45;51.30;;;;;;;4.61;56.74;100584.00;251892;1157;101122;-67
2021/03/03 00:29:04;;;;;;;123.00;54.83;;;;;;;4.56;57.27;100577.93;251887;1151;101115;-70
2021/03/03 00:34:06;;;;;;;115.10;54.70;;;;;;;4.53;57.51;100572.69;251891;1157;101340;-71
2021/03/03 00:39:08;;;;;;;112.60;53.10;;;;;;;4.54;57.30;100571.79;251882;1149;102485;-71
2021/03/03 00:44:10;;;;;;;104.75;51.30;;;;;;;4.49;57.68;100564.82;251897;1149;103580;-71
2021/03/03 00:49:13;;;;;;;115.60;54.10;;;;;;;4.48;57.65;100570.09;251905;1149;101530;-71
2021/03/03 00:54:15;;;;;;;115.00;53.20;;;;;;;4.47;57.76;100563.95;251894;1157;101100;-68
2021/03/03 00:59:17;;;;;;;114.13;54.03;;;;;;;4.46;58.05;100556.95;251843;1150;101707;-69
2021/03/03 01:04:20;;;;;;;109.27;51.80;;;;;;;4.46;58.14;100550.81;251911;1157;101881;-69
2021/03/03 01:09:23;;;;;;;102.15;50.10;;;;;;;4.50;58.88;100558.64;251835;1149;101426;-70
2021/03/03 01:14:25;;;;;;;108.15;51.35;;;;;;;4.49;58.18;100550.77;251862;1157;101769;-70
2021/03/03 01:19:28;;;;;;;121.75;53.80;;;;;;;4.51;58.71;100543.70;251537;1149;101286;-70
2021/03/03 01:24:32;;;;;;;128.55;56.40;;;;;;;4.72;59.50;100538.16;252149;1157;101485;-68
2021/03/03 01:29:34;;;;;;;117.85;56.85;;;;;;;4.92;59.03;100535.20;251855;1149;101795;-68
2021/03/03 01:34:36;;;;;;;118.80;56.10;;;;;;;5.08;59.42;100540.27;251851;1157;101280;-73
2021/03/03 01:39:41;;;;;;;115.40;54.23;;;;;;;5.18;59.06;100539.22;251904;1149;101447;-70
2021/03/03 01:44:45;;;;;;;126.50;56.83;;;;;;;5.24;58.72;100528.58;251265;1157;101448;-71
2021/03/03 01:49:48;;;;;;;120.77;57.17;;;;;;;5.23;58.53;100524.20;251838;1150;101967;-71
2021/03/03 01:54:50;;;;;;;121.05;56.75;;;;;;;5.27;58.89;100525.89;252031;1157;101487;-71
2021/03/03 01:59:53;;;;;;;127.00;55.53;;;;;;;5.18;58.32;100520.75;252059;1150;100961;-77
2021/03/03 02:04:56;;;;;;;126.45;57.30;;;;;;;5.06;58.04;100526.20;251752;1157;103258;-79
2021/03/03 02:10:27;;;;;;;125.98;57.15;;;;;;;5.06;58.30;100520.93;251917;1149;100928;-75
2021/03/03 02:15:32;;;;;;;134.97;61.77;;;;;;;5.09;59.20;100510.33;252179;1157;101005;-75
2021/03/03 02:20:48;;;;;;;138.70;62.60;;;;;;;5.14;59.31;100504.09;251830;1149;101403;-77
2021/03/03 02:25:50;;;;;;;132.23;62.17;;;;;;;5.20;59.15;100503.14;251653;1157;101021;-75
2021/03/03 02:30:55;;;;;;;;;;;;;;;5.22;58.85;100506.60;251805;1149;101522;-70
2021/03/03 02:35:58;;;;;;;124.73;59.63;;;;;;;5.22;59.06;100496.05;251852;1157;101287;-70
2021/03/03 02:41:01;;;;;;;139.27;63.50;;;;;;;5.22;59.23;100499.55;251600;1150;101770;-69
2021/03/03 02:46:06;;;;;;;134.55;63.65;;;;;;;5.24;59.62;100494.27;251828;1157;101750;-69
2021/03/03 02:51:09;;;;;;;142.55;65.45;;;;;;;5.24;59.82;100485.48;251782;1150;101760;-70
2021/03/03 02:56:11;;;;;;;138.25;64.85;;;;;;;5.22;59.49;100486.36;251810;1157;101283;-70
2021/03/03 03:01:15;;;;;;;138.80;64.90;;;;;;;5.20;58.98;100479.39;251925;1150;101118;-67
2021/03/03 03:06:29;;;;;;;127.80;59.25;;;;;;;5.15;59.19;100482.08;251965;1157;102260;-70
2021/03/03 03:11:33;;;;;;;130.10;57.65;;;;;;;5.13;59.58;100490.91;251893;1151;102966;-69
2021/03/03 03:16:41;;;;;;;125.95;59.75;;;;;;;5.03;59.20;100476.13;251891;1157;101375;-71
2021/03/03 03:21:46;;;;;;;139.80;64.10;;;;;;;4.94;59.29;100485.08;251755;1151;102173;-69
2021/03/03 03:26:52;;;;;;;134.43;64.07;;;;;;;4.89;59.26;100477.25;251408;1156;102207;-70
2021/03/03 03:31:56;;;;;;;133.18;64.70;;;;;;;4.89;59.71;100471.97;252045;1149;101826;-69
2021/03/03 03:36:59;;;;;;;145.30;67.93;;;;;;;4.93;59.52;100473.66;252133;1157;102651;-69
2021/03/03 03:42:02;;;;;;;144.20;68.17;;;;;;;4.95;59.26;100471.84;252130;1151;101245;-70
2021/03/03 03:47:05;;;;;;;148.50;66.80;;;;;;;4.90;59.38;100472.84;252104;1157;101161;-69
2021/03/03 03:52:07;;;;;;;147.45;70.03;;;;;;;4.77;59.19;100464.23;252102;1149;101108;-67
2021/03/03 03:57:09;;;;;;;149.10;71.33;;;;;;;4.68;59.84;100461.73;252085;1157;101180;-67
2021/03/03 04:02:12;;;;;;;152.50;72.13;;;;;;;4.66;59.85;100469.68;252067;1150;102329;-68
2021/03/03 04:07:18;;;;;;;150.30;72.75;;;;;;;4.66;59.77;100461.77;252023;1157;101176;-73
2021/03/03 04:12:20;;;;;;;145.20;69.60;;;;;;;4.64;59.94;100457.41;252021;1150;101190;-72
2021/03/03 04:17:23;;;;;;;155.80;76.60;;;;;;;4.63;60.09;100460.95;252070;1157;101268;-71
2021/03/03 04:22:27;;;;;;;155.00;75.40;;;;;;;4.62;59.70;100461.81;252130;1149;101015;-67
2021/03/03 04:27:29;;;;;;;166.60;76.73;;;;;;;4.60;59.95;100453.08;252070;1157;101881;-65
2021/03/03 04:32:32;;;;;;;162.90;77.95;;;;;;;4.56;59.61;100454.02;252051;1150;101870;-67
2021/03/03 04:37:34;;;;;;;170.77;80.63;;;;;;;4.51;60.12;100449.66;252183;1157;100852;-64
2021/03/03 04:42:37;;;;;;;166.40;80.70;;;;;;;4.51;59.99;100448.80;252125;1149;100894;-64
2021/03/03 04:47:40;;;;;;;178.65;81.90;;;;;;;4.47;60.07;100437.43;251982;1157;100974;-64
2021/03/03 04:52:42;;;;;;;169.00;80.43;;;;;;;4.47;60.29;100442.70;252091;1149;101705;-65
2021/03/03 04:57:44;;;;;;;168.75;77.70;;;;;;;4.47;60.27;100432.16;252123;1157;101243;-65
2021/03/03 05:02:46;;;;;;;157.35;77.20;;;;;;;4.45;59.86;100438.34;252146;1157;102066;-65
2021/03/03 05:07:48;;;;;;;155.00;74.97;;;;;;;4.36;59.88;100428.81;252125;1157;101091;-65
2021/03/03 05:12:50;;;;;;;156.23;74.30;;;;;;;4.31;60.54;100425.36;252146;1157;101065;-66
2021/03/03 05:17:52;;;;;;;152.50;72.70;;;;;;;4.31;60.54;100430.63;251935;1151;102359;-67
2021/03/03 05:22:54;;;;;;;140.73;70.67;;;;;;;4.27;60.80;100423.67;252109;1157;101020;-66
2021/03/03 05:27:57;;;;;;;164.48;73.08;;;;;;;4.23;60.64;100422.84;252078;1151;101093;-67
2021/03/03 05:32:59;;;;;;;147.40;69.65;;;;;;;4.28;60.67;100417.53;252131;1157;101115;-66
2021/03/03 05:38:01;;;;;;;136.00;66.80;;;;;;;4.32;60.63;100413.95;252057;1150;101929;-66
2021/03/03 05:43:03;;;;;;;146.23;70.55;;;;;;;4.36;61.07;100418.28;251915;1157;102276;-67
2021/03/03 05:48:06;;;;;;;137.15;66.68;;;;;;;4.36;61.11;100423.55;251783;1150;101913;-67
2021/03/03 05:53:09;;;;;;;132.50;63.95;;;;;;;4.35;60.75;100428.82;251845;1157;101811;-67
2021/03/03 05:58:12;;;;;;;133.08;59.30;;;;;;;4.29;60.88;100429.80;251873;1150;102207;-62
2021/03/03 06:03:16;;;;;;;112.55;56.30;;;;;;;4.23;60.93;100427.24;251492;1157;101122;-64
2021/03/03 06:08:20;;;;;;;114.80;57.10;;;;;;;4.20;61.16;100427.28;251923;1151;102888;-64
2021/03/03 06:13:23;;;;;;;117.20;56.40;;;;;;;4.20;61.06;100428.15;251876;1157;102277;-66
2021/03/03 06:18:26;;;;;;;114.80;55.70;;;;;;;4.21;61.39;100419.38;251488;1153;101158;-66
2021/03/03 06:23:30;;;;;;;112.45;51.85;;;;;;;4.22;61.47;100417.61;251951;1156;101297;-65
2021/03/03 06:28:35;;;;;;;108.90;51.25;;;;;;;4.30;61.53;100414.86;251516;1151;101273;-66
2021/03/03 06:33:37;;;;;;;112.07;54.60;;;;;;;4.34;61.56;100412.14;251945;1157;101811;-66
2021/03/03 06:38:39;;;;;;;120.70;55.70;;;;;;;4.43;61.87;100406.75;251675;1149;102047;-66
2021/03/03 06:43:54;;;;;;;110.80;52.57;;;;;;;4.58;62.14;100410.91;251905;1156;101587;-67
2021/03/03 06:48:56;;;;;;;110.80;55.30;;;;;;;4.71;62.12;100406.31;251912;1150;101036;-71
2021/03/03 06:54:00;;;;;;;107.85;55.30;;;;;;;4.84;61.95;100393.80;251872;1157;101050;-69
2021/03/03 06:59:12;;;;;;;111.90;55.30;;;;;;;4.99;61.75;100401.44;251850;1151;101557;-70
2021/03/03 07:04:31;;;;;;;112.63;56.33;;;;;;;5.11;61.99;100397.73;251893;1157;102422;-69
2021/03/03 07:09:39;;;;;;;116.30;53.90;;;;;;;5.24;62.13;100388.70;251922;1149;101181;-68
2021/03/03 07:14:43;;;;;;;119.73;55.07;;;;;;;5.40;61.98;100389.27;251854;1157;101261;-68
2021/03/03 07:19:58;;;;;;;129.35;61.50;;;;;;;5.55;61.46;100393.39;251902;1151;101183;-70
2021/03/03 07:25:06;;;;;;;128.28;60.65;;;;;;;5.67;61.40;100394.03;251881;1157;101900;-68
2021/03/03 07:30:20;;;;;;;126.70;60.20;;;;;;;5.81;61.21;100385.81;251786;1151;102175;-75
2021/03/03 07:35:23;;;;;;;136.20;67.67;;;;;;;5.96;61.28;100383.78;251872;1157;101091;-72
2021/03/03 07:40:30;;;;;;;153.15;70.90;;;;;;;6.12;60.96;100377.27;250781;1151;103046;-74
2021/03/03 07:45:41;;;;;;;148.10;69.60;;;;;;;6.35;61.12;100368.78;251295;1157;103033;-69
2021/03/03 07:50:44;;;;;;;151.95;72.60;;;;;;;6.56;60.49;100370.94;251644;1157;102138;-70
2021/03/03 07:55:48;;;;;;;144.90;69.30;;;;;;;6.77;60.71;100369.54;252029;1157;101286;-71
2021/03/03 08:00:51;;;;;;;129.03;65.08;;;;;;;6.98;60.87;100372.55;251804;1151;102058;-72
2021/03/03 08:05:54;;;;;;;139.40;62.33;;;;;;;7.18;59.90;100372.03;251815;1157;102207;-73
2021/03/03 08:11:01;;;;;;;130.55;59.05;;;;;;;7.42;59.92;100359.90;251447;1150;102957;-73
2021/03/03 08:16:24;;;;;;;115.40;56.13;;;;;;;7.66;59.24;100355.69;251837;1156;101914;-73
2021/03/03 08:21:28;;;;;;;124.45;56.55;;;;;;;7.83;59.76;100346.31;251458;1151;101241;-75
2021/03/03 08:26:32;;;;;;;111.63;53.67;;;;;;;7.98;59.00;100346.77;251936;1157;101854;-69
2021/03/03 08:31:38;;;;;;;110.03;53.10;;;;;;;8.49;59.45;100335.47;251902;1150;101822;-70
2021/03/03 08:36:41;;;;;;;123.20;59.70;;;;;;;8.74;59.43;100339.05;251933;1157;101724;-73
2021/03/03 08:41:43;;;;;;;88.05;45.18;;;;;;;9.64;59.93;100326.13;251871;1150;101949;-72
2021/03/03 08:46:48;;;;;;;94.60;47.77;;;;;;;10.23;59.73;100322.11;252014;1156;101123;-73
2021/03/03 08:52:06;;;;;;;82.70;46.48;;;;;;;10.59;58.26;100317.95;252087;1151;101063;-73
2021/03/03 08:57:31;;;;;;;81.85;44.05;;;;;;;10.93;57.58;100315.67;252054;1157;102529;-73
2021/03/03 09:02:38;;;;;;;108.75;60.40;;;;;;;11.42;57.74;100311.73;251936;1157;100954;-71
2021/03/03 09:07:42;;;;;;;95.20;48.30;;;;;;;11.78;56.58;100305.63;251936;1157;101552;-73
2021/03/03 09:12:46;;;;;;;71.05;35.95;;;;;;;11.82;54.70;100307.24;251871;1150;101924;-73
2021/03/03 09:17:48;;;;;;;66.75;33.70;;;;;;;11.59;53.87;100303.83;251945;1157;102074;-73
2021/03/03 09:22:50;;;;;;;57.30;27.80;;;;;;;11.40;53.43;100299.40;251890;1149;101317;-72
2021/03/03 09:27:53;;;;;;;64.75;33.20;;;;;;;11.24;53.70;100302.77;251959;1157;101122;-73
2021/03/03 09:32:56;;;;;;;62.70;33.67;;;;;;;11.19;53.38;100301.23;251880;1150;101537;-73
2021/03/03 09:38:00;;;;;;;52.50;29.70;;;;;;;11.18;52.92;100294.17;249235;1157;103168;-74
2021/03/03 09:43:02;;;;;;;58.05;30.85;;;;;;;11.20;53.33;100286.96;251075;1157;103034;-74
2021/03/03 09:48:05;;;;;;;52.75;28.70;;;;;;;11.32;53.18;100281.95;251327;1150;101250;-72
2021/03/03 09:53:08;;;;;;;51.70;27.05;;;;;;;11.50;53.00;100274.91;251677;1150;101618;-79
2021/03/03 09:58:14;;;;;;;46.10;22.45;;;;;;;11.68;52.54;100267.85;251065;1158;102014;-70
2021/03/03 10:03:16;;;;;;;41.80;22.00;;;;;;;11.88;51.92;100272.28;251124;1151;101332;-70
2021/03/03 10:08:19;;;;;;;39.45;19.05;;;;;;;12.04;51.51;100262.61;249711;1150;103116;-70
2021/03/03 10:13:23;;;;;;;28.53;15.87;;;;;;;12.20;51.94;100253.88;251046;1150;102165;-71
2021/03/03 10:18:30;;;;;;;27.53;14.13;;;;;;;12.38;51.11;100236.93;251008;1150;101962;-71
2021/03/03 10:23:33;;;;;;;27.83;14.30;;;;;;;12.59;50.75;100240.31;251901;1150;101512;-71
2021/03/03 10:28:37;;;;;;;27.70;13.50;;;;;;;12.84;50.38;100231.03;251031;1151;102027;-71
2021/03/03 10:33:43;;;;;;;19.10;11.10;;;;;;;13.13;50.39;100234.84;251155;1150;101154;-71
2021/03/03 10:38:48;;;;;;;20.40;11.65;;;;;;;13.44;49.56;100218.90;250902;1151;101231;-71
2021/03/03 10:43:51;;;;;;;21.15;11.50;;;;;;;13.77;49.64;100219.80;251034;1151;102600;-70
2021/03/03 10:48:55;;;;;;;19.05;9.70;;;;;;;14.06;49.11;100205.63;250868;1153;101899;-71
2021/03/03 10:53:58;;;;;;;15.70;9.20;;;;;;;14.30;47.47;100203.34;250997;1152;101812;-71
2021/03/03 10:59:04;;;;;;;16.83;8.37;;;;;;;14.44;47.22;100184.63;251579;1157;101830;-74
2021/03/03 11:04:06;;;;;;;17.30;9.20;;;;;;;14.61;47.01;100180.13;250422;1152;103218;-70
2021/03/03 11:09:12;;;;;;;23.80;14.30;;;;;;;14.89;47.57;100166.74;248440;1152;103308;-74
2021/03/03 11:14:16;;;;;;;32.00;20.30;;;;;;;15.30;47.69;100151.70;250660;1151;102436;-76
2021/03/03 11:19:19;;;;;;;16.50;9.95;;;;;;;15.59;46.38;100136.39;249877;1152;103199;-76
2021/03/03 11:24:22;;;;;;;14.37;7.00;;;;;;;15.58;45.45;100123.95;251068;1151;102052;-76
2021/03/03 11:29:25;;;;;;;22.40;11.40;;;;;;;15.80;46.08;100123.45;250924;1151;103600;-73
2021/03/03 11:34:45;;;;;;;14.27;8.63;;;;;;;16.15;45.56;100115.70;251375;1151;101185;-73
2021/03/03 11:39:49;;;;;;;15.20;6.70;;;;;;;16.28;44.71;100108.53;250734;1158;102017;-75
2021/03/03 11:44:51;;;;;;;13.00;7.60;;;;;;;16.30;43.62;100108.41;250673;1151;102294;-75
2021/03/03 11:49:57;;;;;;;14.20;7.30;;;;;;;16.35;43.37;100097.37;250665;1150;102013;-73
2021/03/03 11:54:59;;;;;;;19.40;8.90;;;;;;;16.55;43.62;100094.16;250720;1151;101550;-73
2021/03/03 12:00:06;;;;;;;16.75;9.15;;;;;;;16.87;43.53;100080.30;251129;1158;101782;-74
2021/03/03 12:05:09;;;;;;;12.50;7.40;;;;;;;17.08;42.55;100067.98;250922;1151;101823;-74
2021/03/03 12:10:13;;;;;;;17.30;9.47;;;;;;;17.25;42.37;100062.26;250052;1151;103255;-79
2021/03/03 12:15:15;;;;;;;16.30;8.00;;;;;;;17.58;42.20;100055.33;250950;1153;101552;-75
2021/03/03 12:20:18;;;;;;;19.10;12.35;;;;;;;17.88;42.00;100044.11;250417;1150;103135;-74
2021/03/03 12:25:21;;;;;;;24.43;14.80;;;;;;;18.10;41.50;100024.45;251326;1150;101332;-73
2021/03/03 12:30:28;;;;;;;25.23;14.77;;;;;;;18.24;41.57;100031.49;250665;1151;102342;-72
2021/03/03 12:35:31;;;;;;;22.95;10.30;;;;;;;18.32;40.87;100014.72;250673;1151;102257;-73
2021/03/03 12:40:34;;;;;;;23.57;12.60;;;;;;;18.36;40.77;100011.64;250620;1158;102077;-71
2021/03/03 12:45:37;;;;;;;17.83;8.27;;;;;;;18.28;39.97;99992.54;251375;1150;101831;-72
2021/03/03 12:50:40;;;;;;;14.45;9.25;;;;;;;18.22;39.93;99984.08;250708;1150;101578;-72
2021/03/03 12:55:42;;;;;;;15.13;8.23;;;;;;;18.15;39.88;99981.86;250876;1151;102663;-72
2021/03/03 13:00:46;;;;;;;12.60;7.70;;;;;;;18.03;39.52;99972.03;251306;1157;101286;-72
2021/03/03 13:05:48;;;;;;;17.15;8.70;;;;;;;18.03;39.17;99963.09;250693;1151;102444;-71
2021/03/03 13:10:51;;;;;;;14.40;8.27;;;;;;;18.00;39.22;99953.41;250905;1151;101862;-81
2021/03/03 13:15:54;;;;;;;20.70;8.80;;;;;;;18.15;39.14;99945.98;250703;1152;102138;-88
2021/03/03 13:21:24;;;;;;;13.17;8.10;;;;;;;18.50;39.42;99939.61;249730;1151;103283;-70
2021/03/03 13:26:26;;;;;;;16.60;7.90;;;;;;;18.82;39.25;99923.56;250633;1151;101226;-72
2021/03/03 13:31:28;;;;;;;13.95;7.25;;;;;;;19.20;39.09;99920.38;251133;1158;101433;-72
2021/03/03 13:36:31;;;;;;;21.85;7.55;;;;;;;19.51;38.94;99915.08;250658;1152;102166;-72
2021/03/03 13:41:34;;;;;;;15.20;8.00;;;;;;;19.71;38.55;99910.70;251060;1157;101256;-69
2021/03/03 13:46:36;;;;;;;15.83;7.10;;;;;;;19.71;38.33;99886.41;250731;1151;101921;-73
2021/03/03 13:51:39;;;;;;;13.70;6.70;;;;;;;19.57;38.06;99888.41;250765;1157;101484;-70
2021/03/03 13:56:42;;;;;;;15.85;6.30;;;;;;;19.27;36.92;99877.53;251390;1150;101627;-71
2021/03/03 14:01:45;;;;;;;17.37;6.60;;;;;;;19.00;36.79;99869.92;251136;1151;102408;-69
2021/03/03 14:06:47;;;;;;;13.67;7.53;;;;;;;18.79;37.37;99869.87;251111;1151;101218;-67
2021/03/03 14:11:50;;;;;;;11.13;5.63;;;;;;;18.54;36.32;99862.89;250829;1151;101963;-69
2021/03/03 14:16:52;;;;;;;11.05;6.10;;;;;;;18.28;36.34;99852.41;251598;1151;100998;-62
2021/03/03 14:21:54;;;;;;;10.03;6.00;;;;;;;18.01;36.42;99841.17;251475;1157;101318;-61
2021/03/03 14:26:56;;;;;;;12.20;6.25;;;;;;;17.78;36.42;99842.98;251914;1150;101137;-61
2021/03/03 14:31:59;;;;;;;11.55;6.35;;;;;;;17.59;36.45;99828.23;252147;1157;100909;-63
2021/03/03 14:37:01;;;;;;;16.70;8.45;;;;;;;17.43;36.42;99816.98;252013;1150;102413;-63
2021/03/03 14:42:04;;;;;;;12.73;6.30;;;;;;;17.33;36.20;99811.45;251105;1157;101176;-63
2021/03/03 14:47:06;;;;;;;11.43;6.27;;;;;;;17.24;36.69;99804.94;251819;1151;101542;-63
2021/03/03 14:52:09;;;;;;;11.47;6.57;;;;;;;17.14;36.18;99795.87;251631;1157;100994;-62
2021/03/03 14:57:11;;;;;;;11.93;6.07;;;;;;;17.00;36.46;99786.17;250948;1152;101122;-63
2021/03/03 15:02:14;;;;;;;12.63;6.17;;;;;;;16.87;36.67;99779.16;251452;1157;101977;-62
2021/03/03 15:07:17;;;;;;;19.20;6.70;;;;;;;16.75;36.75;99772.91;251486;1151;101563;-63
2021/03/03 15:12:19;;;;;;;13.80;6.40;;;;;;;16.66;36.92;99763.66;251740;1157;101168;-63
2021/03/03 15:17:21;;;;;;;12.77;5.97;;;;;;;16.56;36.53;99755.42;251762;1150;101709;-62
2021/03/03 15:22:23;;;;;;;14.35;6.45;;;;;;;16.49;36.74;99753.33;251070;1158;101098;-64
2021/03/03 15:27:25;;;;;;;14.00;6.60;;;;;;;16.39;36.78;99736.18;251677;1151;101862;-65
2021/03/03 15:32:27;;;;;;;8.97;6.03;;;;;;;16.32;36.65;99736.63;251583;1157;101243;-63
2021/03/03 15:37:29;;;;;;;12.10;6.60;;;;;;;16.27;36.59;99729.88;251815;1151;101201;-66
2021/03/03 15:42:32;;;;;;;13.60;6.65;;;;;;;16.20;36.34;99734.88;251312;1158;101999;-66
2021/03/03 15:47:35;;;;;;;15.30;7.35;;;;;;;16.11;36.68;99722.13;251444;1150;101357;-65
2021/03/03 15:52:37;;;;;;;15.50;6.50;;;;;;;15.98;36.97;99719.48;250929;1158;102456;-66
2021/03/03 15:57:39;;;;;;;15.80;7.40;;;;;;;15.87;36.52;99715.88;250027;1151;103309;-68
2021/03/03 16:02:42;;;;;;;51.60;11.00;;;;;;;15.73;36.54;99714.20;251258;1151;101351;-64
2021/03/03 16:07:48;;;;;;;61.10;10.57;;;;;;;15.55;36.76;99716.33;251678;1151;101269;-64
2021/03/03 16:12:50;;;;;;;49.10;10.00;;;;;;;15.33;36.72;99717.02;251291;1158;101083;-63
2021/03/03 16:17:52;;;;;;;82.80;11.43;;;;;;;15.10;37.06;99716.80;251151;1151;102876;-65
2021/03/03 16:22:55;;;;;;;68.05;10.95;;;;;;;14.87;37.11;99710.34;249914;1158;103097;-65
2021/03/03 16:27:57;;;;;;;53.35;9.75;;;;;;;14.65;37.27;99712.80;251128;1151;101530;-68
2021/03/03 16:33:00;;;;;;;70.47;12.00;;;;;;;14.40;37.65;99703.72;251636;1157;101225;-68
2021/03/03 16:38:03;;;;;;;75.70;12.50;;;;;;;14.24;38.20;99711.05;251671;1150;101835;-68
2021/03/03 16:43:05;;;;;;;70.20;12.20;;;;;;;14.13;37.88;99713.56;251327;1156;101770;-68
2021/03/03 16:48:07;;;;;;;27.90;9.10;;;;;;;14.07;38.27;99709.48;251146;1151;102295;-68
2021/03/03 16:53:12;;;;;;;27.45;11.30;;;;;;;14.14;37.56;99712.63;251061;1158;101263;-70
2021/03/03 16:58:16;;;;;;;33.60;11.90;;;;;;;14.26;37.41;99708.26;250696;1151;101103;-69
2021/03/03 17:03:18;;;;;;;31.45;12.80;;;;;;;14.32;37.75;99703.35;250959;1158;101314;-70
2021/03/03 17:08:23;;;;;;;35.47;13.50;;;;;;;14.41;37.47;99717.96;251092;1150;101511;-71
2021/03/03 17:13:26;;;;;;;30.25;13.05;;;;;;;14.42;37.16;99699.09;251489;1151;101125;-69
2021/03/03 17:18:28;;;;;;;36.80;13.53;;;;;;;14.42;37.18;99688.39;251471;1150;101061;-71
2021/03/03 17:23:30;;;;;;;30.90;14.00;;;;;;;14.42;37.40;99696.42;250990;1158;101397;-71
2021/03/03 17:28:32;;;;;;;32.90;13.25;;;;;;;14.43;37.22;99694.59;250997;1151;102503;-71
2021/03/03 17:33:35;;;;;;;30.45;12.95;;;;;;;14.38;37.81;99699.42;251092;1151;102692;-71
2021/03/03 17:38:37;;;;;;;32.25;14.78;;;;;;;14.32;37.76;99692.64;251443;1150;101212;-71
2021/03/03 17:43:39;;;;;;;33.37;14.40;;;;;;;14.29;38.18;99691.99;251276;1151;101279;-71
2021/03/03 17:48:42;;;;;;;37.55;14.20;;;;;;;14.22;38.35;99674.63;250692;1151;102070;-71
2021/03/03 17:53:44;;;;;;;36.50;15.70;;;;;;;14.15;38.64;99674.17;250738;1151;101179;-74
2021/03/03 17:58:46;;;;;;;34.60;16.03;;;;;;;14.10;38.24;99673.64;250934;1150;103318;-73
2021/03/03 18:03:48;;;;;;;40.40;16.80;;;;;;;14.04;38.13;99671.36;251428;1157;101809;-73
2021/03/03 18:08:51;;;;;;;35.50;17.60;;;;;;;13.98;38.77;99672.62;251004;1150;101164;-71
2021/03/03 18:13:53;;;;;;;34.67;17.70;;;;;;;13.92;38.68;99651.61;251306;1157;101676;-73
2021/03/03 18:18:55;;;;;;;38.77;19.03;;;;;;;13.90;39.27;99651.72;251126;1151;101492;-74
2021/03/03 18:23:58;;;;;;;38.33;19.50;;;;;;;13.79;39.24;99646.23;250920;1157;102391;-73
2021/03/03 18:29:01;;;;;;;47.50;20.60;;;;;;;13.70;39.31;99641.47;251165;1150;101387;-75
2021/03/03 18:34:03;;;;;;;62.85;26.25;;;;;;;13.61;39.24;99639.38;251507;1152;102090;-75
2021/03/03 18:39:06;;;;;;;46.35;20.50;;;;;;;13.51;38.98;99643.61;250913;1151;101960;-77
2021/03/03 18:44:08;;;;;;;38.57;19.53;;;;;;;13.41;39.11;99640.66;249720;1151;103229;-74
2021/03/03 18:49:14;;;;;;;41.70;21.90;;;;;;;13.27;39.12;99640.69;251646;1150;101967;-72
2021/03/03 18:54:16;;;;;;;42.10;21.40;;;;;;;13.16;40.20;99634.18;250774;1152;101772;-72
2021/03/03 18:59:18;;;;;;;45.23;22.55;;;;;;;13.05;40.12;99639.34;251041;1151;102827;-74
2021/03/03 19:04:21;;;;;;;52.20;23.10;;;;;;;13.00;39.50;99626.25;251099;1153;101238;-73
2021/03/03 19:09:23;;;;;;;43.83;23.63;;;;;;;12.91;39.35;99621.51;250939;1151;101300;-74
2021/03/03 19:14:25;;;;;;;55.55;26.00;;;;;;;12.81;39.49;99606.16;251135;1151;102008;-74
2021/03/03 19:19:27;;;;;;;57.77;27.20;;;;;;;12.70;38.74;99610.34;251276;1158;101552;-73
2021/03/03 19:24:29;;;;;;;59.20;31.43;;;;;;;12.58;39.10;99603.08;250222;1150;103305;-75
2021/03/03 19:29:31;;;;;;;63.70;32.15;;;;;;;12.45;39.29;99605.63;250027;1157;103100;-74
2021/03/03 19:34:34;;;;;;;61.47;33.27;;;;;;;12.31;38.53;99603.80;252103;1150;101044;-75
2021/03/03 19:39:37;;;;;;;63.15;32.40;;;;;;;12.22;39.04;99600.81;250990;1157;103272;-73
2021/03/03 19:44:39;;;;;;;62.50;31.80;;;;;;;12.15;38.95;99599.47;251733;1151;102395;-73
2021/03/03 19:49:44;;;;;;;62.70;31.50;;;;;;;12.06;39.03;99599.08;251765;1157;101027;-73
2021/03/03 19:54:46;;;;;;;60.13;30.13;;;;;;;12.00;39.34;99596.76;252131;1150;101067;-73
2021/03/03 19:59:48;;;;;;;59.45;30.85;;;;;;;11.94;39.38;99577.59;251631;1151;102683;-74
2021/03/03 20:04:50;;;;;;;58.65;30.95;;;;;;;11.92;40.72;99575.03;249379;1157;103090;-71
2021/03/03 20:09:53;;;;;;;60.87;29.40;;;;;;;11.85;40.74;99576.30;251706;1158;101152;-71
2021/03/03 20:14:55;;;;;;;58.20;30.40;;;;;;;11.76;41.02;99571.50;251740;1151;101679;-71
2021/03/03 20:19:58;;;;;;;61.05;31.75;;;;;;;11.70;41.19;99572.70;250988;1157;103302;-71
2021/03/03 20:25:03;;;;;;;63.43;31.97;;;;;;;11.66;41.33;99559.66;251498;1149;101094;-77
2021/03/03 20:30:11;;;;;;;65.00;31.85;;;;;;;11.58;41.98;99566.30;252072;1157;101973;-78
2021/03/03 20:35:14;;;;;;;;;;;;;;;11.48;42.44;99566.88;251654;1152;101330;-66
2021/03/03 20:40:23;;;;;;;63.97;33.00;;;;;;;11.38;42.34;99558.58;251657;1157;101197;-65
2021/03/03 20:45:25;;;;;;;62.53;34.13;;;;;;;11.29;42.64;99540.44;252143;1150;101172;-69
2021/03/03 20:50:29;;;;;;;64.05;34.95;;;;;;;11.22;42.99;99555.06;251715;1157;101109;-67
2021/03/03 20:55:31;;;;;;;63.10;34.60;;;;;;;11.09;43.25;99545.08;251671;1151;101938;-67
2021/03/03 21:00:33;;;;;;;69.18;35.40;;;;;;;11.03;43.37;99548.08;251665;1157;101083;-66
2021/03/03 21:05:36;;;;;;;64.67;33.53;;;;;;;10.91;44.11;99546.12;252077;1150;101143;-66
2021/03/03 21:10:38;;;;;;;69.00;35.00;;;;;;;10.85;44.65;99541.13;252088;1157;101346;-66
2021/03/03 21:15:41;;;;;;;70.77;35.60;;;;;;;10.79;44.72;99541.45;251691;1153;101021;-67
2021/03/03 21:20:43;;;;;;;67.20;34.10;;;;;;;10.73;45.00;99531.99;251711;1157;101258;-66
2021/03/03 21:25:46;;;;;;;65.25;35.30;;;;;;;10.67;45.56;99537.67;251909;1151;101015;-66
2021/03/03 21:30:48;;;;;;;63.83;34.80;;;;;;;10.59;45.82;99527.42;251643;1157;101237;-66
2021/03/03 21:35:50;;;;;;;60.17;33.50;;;;;;;10.54;46.29;99520.66;251659;1151;101876;-66
2021/03/03 21:40:52;;;;;;;63.60;35.00;;;;;;;10.48;46.72;99513.84;252091;1157;102204;-67
2021/03/03 21:45:54;;;;;;;59.70;34.40;;;;;;;10.42;46.45;99506.19;252066;1151;101604;-65
2021/03/03 21:50:57;;;;;;;65.90;36.13;;;;;;;10.39;46.85;99498.37;252028;1157;101124;-65
2021/03/03 21:55:59;;;;;;;67.53;36.47;;;;;;;10.37;47.09;99492.29;252047;1150;101149;-67
2021/03/03 22:01:01;;;;;;;65.40;35.00;;;;;;;10.32;47.35;99483.68;251744;1157;101125;-68
2021/03/03 22:06:03;;;;;;;63.10;37.70;;;;;;;10.21;47.57;99475.39;252065;1150;101185;-67
2021/03/03 22:11:06;;;;;;;69.00;36.37;;;;;;;10.17;47.81;99485.34;252048;1158;101824;-72
2021/03/03 22:16:13;;;;;;;71.00;38.10;;;;;;;10.09;48.17;99477.77;252043;1150;102466;-72
2021/03/03 22:21:15;;;;;;;68.50;37.27;;;;;;;10.05;48.06;99478.85;251647;1158;100942;-70
2021/03/03 22:26:18;;;;;;;69.77;37.37;;;;;;;10.02;48.17;99475.50;252074;1150;101148;-71
2021/03/03 22:31:20;;;;;;;71.65;38.25;;;;;;;9.93;48.71;99460.91;252016;1157;101171;-71
2021/03/03 22:36:26;;;;;;;69.83;37.07;;;;;;;9.86;48.79;99470.15;252104;1150;102056;-70
2021/03/03 22:41:28;;;;;;;69.95;37.70;;;;;;;9.82;48.98;99471.25;252066;1157;101231;-70